createdAt,value
2022-12-04T00:02:06.648Z,4.45
2022-12-04T00:04:44.051Z,4.57
2022-12-04T00:07:20.160Z,7.93
2022-12-04T00:09:56.015Z,5.40
2022-12-04T00:12:35.123Z,5.90
2022-12-04T00:15:27.751Z,6.00
2022-12-04T00:18:03.742Z,9.30
2022-12-04T00:20:43.126Z,5.47
2022-12-04T00:23:19.191Z,5.47
2022-12-04T00:25:55.262Z,6.63
2022-12-04T00:28:33.218Z,7.10
2022-12-04T00:31:12.397Z,8.50
2022-12-04T00:33:48.932Z,7.93
2022-12-04T00:36:28.730Z,4.70
2022-12-04T00:39:05.617Z,5.90
2022-12-04T00:41:41.346Z,7.55
2022-12-04T00:44:19.618Z,8.80
2022-12-04T00:46:55.241Z,7.38
2022-12-04T00:49:30.596Z,8.00
2022-12-04T00:52:08.677Z,6.25
2022-12-04T00:54:45.054Z,6.93
2022-12-04T00:57:21.132Z,5.35
2022-12-04T00:59:58.740Z,6.03
2022-12-04T01:02:35.662Z,6.20
2022-12-04T01:05:12.645Z,6.00
2022-12-04T01:07:49.802Z,6.55
2022-12-04T01:10:26.183Z,7.47
2022-12-04T01:13:01.698Z,5.50
2022-12-04T01:15:45.320Z,5.47
2022-12-04T01:18:22.145Z,8.35
2022-12-04T01:20:59.834Z,8.68
2022-12-04T01:23:35.170Z,6.18
2022-12-04T01:26:12.941Z,8.88
2022-12-04T01:28:49.291Z,10.70
2022-12-04T01:31:27.775Z,9.68
2022-12-04T01:34:04.938Z,9.32
2022-12-04T01:36:40.350Z,6.35
2022-12-04T01:39:16.856Z,6.05
2022-12-04T01:41:51.288Z,7.18
2022-12-04T01:44:30.142Z,6.43
2022-12-04T01:47:09.877Z,5.43
2022-12-04T01:49:47.981Z,5.18
2022-12-04T01:52:26.132Z,6.60
2022-12-04T01:55:03.304Z,4.13
2022-12-04T01:57:40.888Z,4.53
2022-12-04T02:00:21.498Z,4.82
2022-12-04T02:03:03.272Z,4.38
2022-12-04T02:05:40.447Z,5.97
2022-12-04T02:08:16.122Z,5.30
2022-12-04T02:10:58.228Z,6.45
2022-12-04T02:13:38.779Z,5.95
2022-12-04T02:16:20.020Z,5.50
2022-12-04T02:19:02.243Z,5.88
2022-12-04T02:21:40.368Z,2.58
2022-12-04T02:24:24.622Z,5.75
2022-12-04T02:27:02.568Z,4.80
2022-12-04T02:29:43.111Z,6.47
2022-12-04T02:32:22.988Z,7.55
2022-12-04T02:35:04.132Z,4.25
2022-12-04T02:37:43.320Z,6.03
2022-12-04T02:40:26.132Z,6.13
2022-12-04T02:43:06.738Z,4.45
2022-12-04T02:45:46.111Z,7.00
2022-12-04T02:48:26.194Z,6.60
2022-12-04T02:51:02.807Z,4.57
2022-12-04T02:53:40.293Z,4.43
2022-12-04T02:56:19.865Z,5.95
2022-12-04T02:59:00.752Z,6.13
2022-12-04T03:01:46.647Z,5.93
2022-12-04T03:04:25.759Z,4.63
2022-12-04T03:07:05.031Z,4.65
2022-12-04T03:09:44.200Z,6.15
2022-12-04T03:12:25.252Z,4.68
2022-12-04T03:15:05.882Z,4.20
2022-12-04T03:17:50.646Z,5.70
2022-12-04T03:20:28.147Z,5.38
2022-12-04T03:23:10.061Z,3.88
2022-12-04T03:25:53.125Z,5.88
2022-12-04T03:28:34.677Z,6.75
2022-12-04T03:31:13.875Z,3.67
2022-12-04T03:33:53.352Z,4.00
2022-12-04T03:36:34.942Z,4.88
2022-12-04T03:39:19.751Z,4.35
2022-12-04T03:42:04.745Z,2.15
2022-12-04T03:44:45.855Z,4.85
2022-12-04T03:47:26.293Z,3.95
2022-12-04T03:50:05.826Z,5.68
2022-12-04T03:52:47.476Z,4.65
2022-12-04T03:55:30.959Z,6.38
2022-12-04T03:58:11.950Z,4.75
2022-12-04T04:00:47.961Z,6.60
2022-12-04T04:03:27.688Z,6.53
2022-12-04T04:06:12.223Z,6.57
2022-12-04T04:08:53.402Z,5.00
2022-12-04T04:11:33.859Z,7.10
2022-12-04T04:14:32.408Z,5.13
2022-12-04T04:17:27.446Z,5.18
2022-12-04T04:20:24.779Z,5.57
2022-12-04T04:23:35.601Z,3.80
2022-12-04T04:26:11.912Z,4.07
2022-12-04T04:28:48.144Z,5.00
2022-12-04T04:31:33.123Z,4.78
2022-12-04T04:34:17.378Z,6.40
2022-12-04T04:37:00.472Z,6.15
2022-12-04T04:39:43.210Z,3.97
2022-12-04T04:42:26.894Z,5.20
2022-12-04T04:45:09.932Z,5.57
2022-12-04T04:47:47.688Z,6.13
2022-12-04T04:50:24.950Z,5.88
2022-12-04T04:53:05.115Z,6.38
2022-12-04T04:55:42.537Z,4.75
2022-12-04T04:58:18.900Z,5.57
2022-12-04T05:00:56.625Z,6.43
2022-12-04T05:03:33.091Z,4.50
2022-12-04T05:06:08.322Z,6.85
2022-12-04T05:08:44.316Z,6.30
2022-12-04T05:11:25.013Z,6.93
2022-12-04T05:14:04.082Z,7.55
2022-12-04T05:16:39.206Z,7.47
2022-12-04T05:19:30.863Z,5.95
2022-12-04T05:22:05.391Z,7.05
2022-12-04T05:24:41.420Z,5.82
2022-12-04T05:27:18.864Z,8.60
2022-12-04T05:29:56.082Z,9.13
2022-12-04T05:32:35.463Z,8.80
2022-12-04T05:35:12.328Z,7.65
2022-12-04T05:37:47.276Z,4.50
2022-12-04T05:40:22.585Z,5.30
2022-12-04T05:42:59.766Z,5.80
2022-12-04T05:45:35.333Z,5.53
2022-12-04T05:48:10.442Z,8.48
2022-12-04T05:50:46.465Z,6.47
2022-12-04T05:53:21.570Z,7.20
2022-12-04T05:56:03.986Z,4.85
2022-12-04T05:58:41.931Z,4.65
2022-12-04T06:01:21.089Z,4.60
2022-12-04T06:03:57.938Z,3.35
2022-12-04T06:06:34.476Z,7.07
2022-12-04T06:09:09.014Z,5.47
2022-12-04T06:11:45.835Z,5.80
2022-12-04T06:14:22.222Z,7.05
2022-12-04T06:16:58.205Z,8.50
2022-12-04T06:19:33.328Z,6.30
2022-12-04T06:22:09.803Z,7.30
2022-12-04T06:24:44.385Z,6.15
2022-12-04T06:27:28.309Z,6.80
2022-12-04T06:30:05.856Z,7.70
2022-12-04T06:32:41.870Z,7.50
2022-12-04T06:35:17.010Z,10.45
2022-12-04T06:37:53.647Z,5.00
2022-12-04T06:40:29.692Z,8.55
2022-12-04T06:43:07.136Z,6.20
2022-12-04T06:45:44.524Z,4.10
2022-12-04T06:48:21.830Z,7.88
2022-12-04T06:51:03.282Z,7.53
2022-12-04T06:53:40.091Z,6.47
2022-12-04T06:56:16.029Z,11.10
2022-12-04T06:58:54.429Z,10.20
2022-12-04T07:01:31.602Z,9.95
2022-12-04T07:04:09.192Z,9.23
2022-12-04T07:06:44.791Z,8.65
2022-12-04T07:09:22.086Z,9.48
2022-12-04T07:11:57.397Z,7.25
2022-12-04T07:14:33.190Z,7.05
2022-12-04T07:17:11.066Z,6.38
2022-12-04T07:19:47.353Z,6.88
2022-12-04T07:22:24.378Z,5.68
2022-12-04T07:25:00.169Z,4.72
2022-12-04T07:27:36.704Z,6.72
2022-12-04T07:30:15.818Z,6.22
2022-12-04T07:32:56.875Z,10.10
2022-12-04T07:35:32.954Z,9.07
2022-12-04T07:38:08.369Z,7.22
2022-12-04T07:40:44.786Z,5.07
2022-12-04T07:43:19.974Z,4.93
2022-12-04T07:45:55.746Z,6.05
2022-12-04T07:48:33.603Z,7.38
2022-12-04T07:51:10.576Z,7.30
2022-12-04T07:53:46.363Z,11.13
2022-12-04T07:56:23.301Z,19.27
2022-12-04T07:59:01.967Z,10.13
2022-12-04T08:01:39.701Z,12.55
2022-12-04T08:04:19.101Z,19.90
2022-12-04T08:06:56.875Z,14.55
2022-12-04T08:09:31.787Z,19.20
2022-12-04T08:12:07.934Z,12.15
2022-12-04T08:14:42.525Z,17.55
2022-12-04T08:17:18.259Z,17.80
2022-12-04T08:19:57.327Z,13.32
2022-12-04T08:22:35.324Z,9.65
2022-12-04T08:25:10.920Z,8.13
2022-12-04T08:27:48.864Z,8.35
2022-12-04T08:30:24.858Z,6.38
2022-12-04T08:33:00.548Z,8.50
2022-12-04T08:35:38.369Z,5.38
2022-12-04T08:38:13.475Z,7.95
2022-12-04T08:40:48.304Z,8.30
2022-12-04T08:43:24.279Z,6.80
2022-12-04T08:46:02.575Z,7.30
2022-12-04T08:48:38.074Z,8.43
2022-12-04T08:51:19.868Z,6.05
2022-12-04T08:54:01.036Z,8.13
2022-12-04T08:56:39.112Z,8.13
2022-12-04T08:59:16.504Z,7.88
2022-12-04T09:01:51.772Z,10.90
2022-12-04T09:04:27.271Z,5.63
2022-12-04T09:07:04.099Z,6.20
2022-12-04T09:09:43.545Z,7.68
2022-12-04T09:12:23.062Z,9.65
2022-12-04T09:15:00.142Z,5.45
2022-12-04T09:17:36.082Z,8.73
2022-12-04T09:20:11.677Z,5.85
2022-12-04T09:23:03.519Z,7.65
2022-12-04T09:25:41.684Z,7.28
2022-12-04T09:28:17.313Z,10.13
2022-12-04T09:31:01.367Z,9.13
2022-12-04T09:33:36.446Z,8.95
2022-12-04T09:36:17.622Z,6.57
2022-12-04T09:38:56.375Z,8.35
2022-12-04T09:41:51.249Z,9.57
2022-12-04T09:44:28.559Z,8.73
2022-12-04T09:47:08.896Z,8.00
2022-12-04T09:49:51.421Z,9.38
2022-12-04T09:52:40.496Z,7.43
2022-12-04T09:55:28.001Z,7.20
2022-12-04T09:58:29.220Z,8.63
2022-12-04T10:01:30.858Z,7.55
2022-12-04T10:04:10.277Z,7.32
2022-12-04T10:06:53.402Z,7.32
2022-12-04T10:09:35.679Z,8.88
2022-12-04T10:12:24.736Z,8.27
2022-12-04T10:15:09.834Z,7.00
2022-12-04T10:18:03.405Z,6.82
2022-12-04T10:21:18.342Z,9.57
2022-12-04T10:24:04.333Z,10.38
2022-12-04T10:26:41.541Z,8.48
2022-12-04T10:29:22.654Z,8.27
2022-12-04T10:32:02.207Z,8.18
2022-12-04T10:34:41.180Z,9.43
2022-12-04T10:37:25.915Z,6.95
2022-12-04T10:40:01.633Z,8.48
2022-12-04T10:42:41.892Z,11.85
2022-12-04T10:45:20.178Z,7.95
2022-12-04T10:47:57.314Z,6.35
2022-12-04T10:50:34.665Z,9.02
2022-12-04T10:53:21.384Z,7.50
2022-12-04T10:56:01.401Z,6.15
2022-12-04T10:58:39.233Z,6.50
2022-12-04T11:01:17.462Z,9.63
2022-12-04T11:03:54.197Z,8.45
2022-12-04T11:06:31.212Z,9.88
2022-12-04T11:09:07.554Z,10.52
2022-12-04T11:11:43.572Z,10.48
2022-12-04T11:14:26.887Z,8.38
2022-12-04T11:17:10.929Z,13.05
2022-12-04T11:19:46.247Z,7.15
2022-12-04T11:22:25.342Z,11.15
2022-12-04T11:25:01.914Z,10.30
2022-12-04T11:27:41.936Z,7.63
2022-12-04T11:30:19.994Z,8.10
2022-12-04T11:32:58.179Z,9.75
2022-12-04T11:35:34.452Z,10.70
2022-12-04T11:38:13.062Z,10.25
2022-12-04T11:40:52.587Z,13.23
2022-12-04T11:43:31.527Z,16.17
2022-12-04T11:46:10.657Z,14.25
2022-12-04T11:48:52.334Z,12.65
2022-12-04T11:51:32.649Z,11.27
2022-12-04T11:54:13.129Z,14.88
2022-12-04T11:56:52.268Z,12.55
2022-12-04T11:59:50.565Z,12.88
2022-12-04T12:02:47.450Z,12.38
2022-12-04T12:05:42.754Z,10.70
2022-12-04T12:08:32.135Z,14.18
2022-12-04T12:11:16.819Z,12.98
2022-12-04T12:14:02.478Z,15.45
2022-12-04T12:16:51.364Z,13.18
2022-12-04T12:19:53.838Z,12.63
2022-12-04T12:22:56.233Z,10.98
2022-12-04T12:25:37.827Z,16.50
2022-12-04T12:28:25.054Z,12.63
2022-12-04T12:31:19.994Z,13.32
2022-12-04T12:34:01.201Z,12.88
2022-12-04T12:36:43.757Z,13.02
2022-12-04T12:39:28.557Z,17.13
2022-12-04T12:42:06.750Z,13.93
2022-12-04T12:44:52.567Z,14.88
2022-12-04T12:47:32.331Z,15.48
2022-12-04T12:50:11.524Z,14.95
2022-12-04T12:52:53.593Z,18.30
2022-12-04T12:55:35.857Z,11.05
2022-12-04T12:58:17.381Z,14.85
2022-12-04T13:00:59.884Z,17.58
2022-12-04T13:03:45.337Z,16.38
2022-12-04T13:06:25.942Z,10.38
2022-12-04T13:09:11.226Z,10.15
2022-12-04T13:11:51.537Z,13.32
2022-12-04T13:14:27.777Z,12.30
2022-12-04T13:17:13.646Z,11.00
2022-12-04T13:19:55.768Z,13.77
2022-12-04T13:22:39.852Z,14.15
2022-12-04T13:25:36.161Z,10.75
2022-12-04T13:28:25.776Z,13.95
2022-12-04T13:31:07.749Z,12.48
2022-12-04T13:34:07.819Z,14.00
2022-12-04T13:37:03.445Z,16.42
2022-12-04T13:40:34.457Z,12.43
2022-12-04T13:43:49.860Z,13.55
2022-12-04T13:46:35.806Z,12.27
2022-12-04T13:49:27.443Z,14.20
2022-12-04T13:52:05.460Z,14.95
2022-12-04T13:54:42.542Z,13.63
2022-12-04T13:57:27.130Z,10.55
2022-12-04T14:00:28.578Z,9.20
2022-12-04T14:03:08.118Z,10.90
2022-12-04T14:05:48.668Z,10.88
2022-12-04T14:08:31.341Z,11.88
2022-12-04T14:11:10.752Z,14.07
2022-12-04T14:13:52.692Z,11.02
2022-12-04T14:16:35.462Z,9.70
2022-12-04T14:19:13.290Z,8.38
2022-12-04T14:21:51.824Z,11.10
2022-12-04T14:24:37.485Z,10.52
2022-12-04T14:27:38.117Z,11.40
2022-12-04T14:30:23.414Z,14.52
2022-12-04T14:33:06.449Z,11.65
2022-12-04T14:35:51.336Z,10.30
2022-12-04T14:38:28.938Z,8.45
2022-12-04T14:41:06.039Z,11.35
2022-12-04T14:43:45.758Z,12.07
2022-12-04T14:46:27.791Z,10.43
2022-12-04T14:49:22.259Z,14.73
2022-12-04T14:52:07.916Z,12.50
2022-12-04T14:54:54.782Z,11.90
2022-12-04T14:57:45.861Z,8.73
2022-12-04T15:00:24.754Z,10.60
2022-12-04T15:03:04.486Z,8.93
2022-12-04T15:05:43.141Z,12.32
2022-12-04T15:08:21.957Z,10.73
2022-12-04T15:11:13.769Z,10.02
2022-12-04T15:13:50.461Z,8.30
2022-12-04T15:16:27.799Z,11.50
2022-12-04T15:19:05.421Z,11.93
2022-12-04T15:21:45.131Z,9.07
2022-12-04T15:24:26.062Z,9.15
2022-12-04T15:27:02.333Z,7.45
2022-12-04T15:29:44.460Z,17.42
2022-12-04T15:32:24.774Z,9.80
2022-12-04T15:35:04.421Z,9.35
2022-12-04T15:37:45.492Z,9.38
2022-12-04T15:40:28.267Z,11.98
2022-12-04T15:43:20.663Z,11.45
2022-12-04T15:45:57.738Z,6.90
2022-12-04T15:48:41.646Z,11.38
2022-12-04T15:51:24.395Z,10.32
2022-12-04T15:54:02.033Z,9.18
2022-12-04T15:56:38.321Z,8.02
2022-12-04T15:59:22.235Z,11.85
2022-12-04T16:01:58.609Z,12.55
2022-12-04T16:04:41.088Z,11.90
2022-12-04T16:07:27.131Z,8.98
2022-12-04T16:10:09.868Z,12.30
2022-12-04T16:12:56.587Z,9.38
2022-12-04T16:15:39.809Z,11.70
2022-12-04T16:18:19.181Z,6.32
2022-12-04T16:20:55.283Z,7.43
2022-12-04T16:23:31.635Z,8.43
2022-12-04T16:26:08.868Z,7.68
2022-12-04T16:28:45.284Z,9.98
2022-12-04T16:31:29.710Z,8.00
2022-12-04T16:34:06.218Z,10.30
2022-12-04T16:36:43.094Z,10.57
2022-12-04T16:39:20.170Z,17.75
2022-12-04T16:41:59.116Z,11.27
2022-12-04T16:44:35.314Z,13.70
2022-12-04T16:47:13.839Z,13.75
2022-12-04T16:49:52.970Z,13.27
2022-12-04T16:52:30.310Z,14.18
2022-12-04T16:55:06.109Z,11.90
2022-12-04T16:57:45.999Z,11.05
2022-12-04T17:00:22.572Z,11.82
2022-12-04T17:02:58.244Z,10.77
2022-12-04T17:05:37.583Z,11.05
2022-12-04T17:08:15.307Z,10.38
2022-12-04T17:10:53.858Z,14.93
2022-12-04T17:13:33.382Z,12.00
2022-12-04T17:16:15.191Z,9.02
2022-12-04T17:18:51.608Z,8.38
2022-12-04T17:21:28.188Z,7.88
2022-12-04T17:24:05.042Z,11.80
2022-12-04T17:26:43.311Z,9.13
2022-12-04T17:29:21.430Z,10.02
2022-12-04T17:31:57.757Z,10.45
2022-12-04T17:34:33.867Z,11.15
2022-12-04T17:37:10.032Z,10.13
2022-12-04T17:39:46.728Z,9.18
2022-12-04T17:42:23.602Z,8.55
2022-12-04T17:45:02.223Z,9.65
2022-12-04T17:47:39.747Z,7.78
2022-12-04T17:50:16.851Z,9.02
2022-12-04T17:52:53.869Z,9.73
2022-12-04T17:55:30.980Z,10.00
2022-12-04T17:58:06.611Z,9.23
2022-12-04T18:00:43.986Z,7.75
2022-12-04T18:03:20.872Z,8.10
2022-12-04T18:05:56.662Z,7.90
2022-12-04T18:08:33.304Z,10.57
2022-12-04T18:11:11.364Z,6.55
2022-12-04T18:13:48.385Z,9.07
2022-12-04T18:16:27.031Z,7.10
2022-12-04T18:19:04.194Z,7.07
2022-12-04T18:21:40.535Z,6.25
2022-12-04T18:24:16.760Z,9.00
2022-12-04T18:26:55.519Z,16.98
2022-12-04T18:29:32.720Z,9.13
2022-12-04T18:32:10.880Z,8.30
2022-12-04T18:34:47.215Z,8.23
2022-12-04T18:37:23.387Z,8.30
2022-12-04T18:40:04.767Z,7.65
2022-12-04T18:42:43.564Z,7.18
2022-12-04T18:45:20.421Z,7.32
2022-12-04T18:47:58.224Z,10.35
2022-12-04T18:50:38.349Z,10.23
2022-12-04T18:53:16.465Z,9.15
2022-12-04T18:55:53.064Z,7.30
2022-12-04T18:58:30.523Z,6.90
2022-12-04T19:01:11.886Z,10.27
2022-12-04T19:03:50.276Z,5.38
2022-12-04T19:06:27.403Z,6.35
2022-12-04T19:09:06.439Z,6.88
2022-12-04T19:11:43.676Z,7.95
2022-12-04T19:14:23.658Z,9.65
2022-12-04T19:17:00.111Z,5.68
2022-12-04T19:19:38.191Z,8.75
2022-12-04T19:22:14.474Z,7.90
2022-12-04T19:24:51.088Z,10.32
2022-12-04T19:27:29.391Z,6.35
2022-12-04T19:30:07.707Z,7.63
2022-12-04T19:32:43.589Z,8.38
2022-12-04T19:35:21.897Z,7.78
2022-12-04T19:37:59.529Z,8.73
2022-12-04T19:40:36.364Z,8.30
2022-12-04T19:43:12.318Z,8.23
2022-12-04T19:45:53.711Z,9.10
2022-12-04T19:48:30.607Z,6.40
2022-12-04T19:51:14.148Z,6.53
2022-12-04T19:53:50.326Z,8.13
2022-12-04T19:56:29.681Z,7.90
2022-12-04T19:59:07.820Z,7.95
2022-12-04T20:01:45.753Z,9.50
2022-12-04T20:04:21.826Z,8.02
2022-12-04T20:07:00.594Z,6.82
2022-12-04T20:09:38.017Z,8.95
2022-12-04T20:12:14.688Z,8.45
2022-12-04T20:14:51.508Z,9.18
2022-12-04T20:17:28.506Z,8.00
2022-12-04T20:20:06.764Z,7.63
2022-12-04T20:22:48.200Z,11.48
2022-12-04T20:25:24.745Z,7.65
2022-12-04T20:28:01.603Z,7.28
2022-12-04T20:30:41.754Z,4.85
2022-12-04T20:33:19.417Z,6.38
2022-12-04T20:35:55.716Z,5.35
2022-12-04T20:38:34.015Z,9.02
2022-12-04T20:41:12.215Z,8.63
2022-12-04T20:43:52.229Z,8.15
2022-12-04T20:46:33.185Z,6.55
2022-12-04T20:49:13.490Z,9.35
2022-12-04T20:51:54.277Z,7.53
2022-12-04T20:54:41.364Z,6.03
2022-12-04T20:57:18.086Z,6.75
2022-12-04T20:59:54.677Z,5.68
2022-12-04T21:02:32.043Z,6.88
2022-12-04T21:05:08.864Z,8.55
2022-12-04T21:07:45.502Z,8.10
2022-12-04T21:10:26.438Z,5.75
2022-12-04T21:13:18.904Z,10.32
2022-12-04T21:16:09.787Z,8.52
2022-12-04T21:18:46.184Z,8.23
2022-12-04T21:21:23.360Z,9.98
2022-12-04T21:24:00.178Z,7.82
2022-12-04T21:26:38.951Z,8.00
2022-12-04T21:29:15.902Z,8.38
2022-12-04T21:31:54.096Z,8.35
2022-12-04T21:34:31.274Z,8.15
2022-12-04T21:37:07.816Z,8.98
2022-12-04T21:39:44.452Z,7.00
2022-12-04T21:42:35.546Z,8.27
2022-12-04T21:45:13.337Z,12.00
2022-12-04T21:47:50.527Z,11.38
2022-12-04T21:50:26.891Z,10.38
2022-12-04T21:53:02.686Z,9.55
2022-12-04T21:55:38.925Z,11.75
2022-12-04T21:58:17.618Z,16.10
2022-12-04T22:00:53.452Z,11.15
2022-12-04T22:03:29.899Z,17.13
2022-12-04T22:06:07.592Z,15.45
2022-12-04T22:08:45.567Z,17.27
2022-12-04T22:11:22.135Z,14.98
2022-12-04T22:14:00.596Z,14.27
2022-12-04T22:16:41.526Z,13.27
2022-12-04T22:19:19.091Z,10.13
2022-12-04T22:21:55.519Z,11.20
2022-12-04T22:24:31.605Z,10.05
2022-12-04T22:27:08.068Z,13.68
2022-12-04T22:30:02.394Z,10.32
2022-12-04T22:32:39.147Z,11.07
2022-12-04T22:35:15.917Z,8.20
2022-12-04T22:37:53.526Z,11.93
2022-12-04T22:40:29.969Z,8.82
2022-12-04T22:43:06.481Z,11.32
2022-12-04T22:45:44.886Z,12.68
2022-12-04T22:48:21.590Z,9.40
2022-12-04T22:51:06.385Z,8.10
2022-12-04T22:53:43.722Z,7.55
2022-12-04T22:56:21.055Z,11.15
2022-12-04T22:58:58.501Z,8.45
2022-12-04T23:01:38.788Z,11.15
2022-12-04T23:04:16.350Z,11.15
2022-12-04T23:06:52.580Z,10.02
2022-12-04T23:09:30.541Z,7.90
2022-12-04T23:12:06.835Z,9.40
2022-12-04T23:14:44.027Z,11.50
2022-12-04T23:17:22.303Z,11.60
2022-12-04T23:19:58.135Z,8.68
2022-12-04T23:22:34.738Z,8.82
2022-12-04T23:25:11.153Z,10.43
2022-12-04T23:27:47.041Z,11.25
2022-12-04T23:30:27.465Z,8.35
2022-12-04T23:33:06.532Z,11.95
2022-12-04T23:35:42.240Z,9.13
2022-12-04T23:38:19.708Z,7.95
2022-12-04T23:40:58.306Z,10.45
2022-12-04T23:43:35.014Z,8.52
2022-12-04T23:46:11.466Z,10.48
2022-12-04T23:48:49.435Z,6.13
2022-12-04T23:51:25.345Z,11.13
2022-12-04T23:54:01.493Z,11.65
2022-12-04T23:56:40.018Z,7.95
2022-12-04T23:59:15.154Z,9.27
